EST,Max TemperatureF,Mean TemperatureF,Min TemperatureF,Max Dew PointF,MeanDew PointF,Min DewpointF,Max Humidity, Mean Humidity, Min Humidity, Max Sea Level PressureIn, Mean Sea Level PressureIn, Min Sea Level PressureIn, Max VisibilityMiles, Mean VisibilityMiles, Min VisibilityMiles, Max Wind SpeedMPH, Mean Wind SpeedMPH, Max Gust SpeedMPH,PrecipitationIn, CloudCover, Events, WindDirDegrees
2013-2-1,44,37,30,25,12,2,60,36,21,30.36,30.21,29.97,10,10,10,23,11,33,0.00,0,,19
2013-2-2,45,35,25,35,20,5,93,58,22,30.39,30.23,30.07,10,10,7,13,4,24,0.03,5,Rain,242
2013-2-3,54,44,34,35,27,16,89,59,23,30.05,29.99,29.90,10,10,9,21,11,32,0.00,1,,268
2013-2-4,48,39,30,26,22,18,64,50,33,30.15,30.07,30.03,10,10,10,9,6,,0.00,0,,254
2013-2-5,62,48,35,44,35,27,83,61,38,30.01,29.98,29.92,10,10,10,16,6,25,0.00,2,,249
2013-2-6,66,52,39,43,29,17,93,48,15,30.18,30.11,30.01,10,10,7,10,3,,0.00,0,,32
2013-2-7,50,46,42,40,33,23,92,67,37,30.22,30.13,29.99,10,8,3,20,13,29,0.54,6,Rain,39
2013-2-8,59,50,39,45,38,24,92,70,29,30.13,29.97,29.91,10,10,10,21,11,31,0.00,5,,342
2013-2-9,60,50,39,26,19,15,58,32,18,30.33,30.24,30.11,10,10,10,22,11,34,0.00,0,,9
2013-2-10,57,49,41,45,33,21,93,60,30,30.42,30.30,30.17,10,9,6,10,6,16,0.40,3,Rain,59
2013-2-11,55,50,46,54,50,44,100,94,86,30.15,30.08,30.01,10,5,0,15,4,23,0.12,6,Fog-Rain,265
2013-2-12,59,52,45,47,34,21,90,58,23,30.11,30.02,29.92,10,10,8,10,4,,0.14,3,Rain,340
2013-2-13,51,46,39,45,41,30,97,84,65,29.90,29.79,29.70,10,8,1,17,7,23,0.03,6,Rain,23
2013-2-14,52,42,33,33,30,28,85,62,43,30.08,30.01,29.92,10,10,10,10,3,,0.00,0,,249
2013-2-15,62,47,32,36,30,27,88,55,28,30.11,30.03,29.95,10,10,10,12,3,20,0.00,2,,247
2013-2-16,43,36,28,31,26,10,89,66,37,30.06,29.93,29.85,10,8,0,14,8,22,0.05,7,Fog-Snow,348
2013-2-17,46,36,25,15,6,-4,56,33,12,30.27,30.16,30.07,10,10,10,14,4,22,0.00,0,,282
2013-2-18,55,42,28,23,18,12,72,40,23,30.38,30.30,30.22,10,10,10,13,3,22,0.00,0,,181
2013-2-19,53,45,37,43,32,11,93,68,25,30.20,30.04,29.92,10,9,5,16,6,24,0.20,5,Rain,230
2013-2-20,54,41,28,20,13,7,66,35,16,30.14,30.09,30.06,10,10,10,12,3,,0.00,0,,275
2013-2-21,57,46,34,37,16,7,74,31,18,30.23,30.15,30.09,10,10,10,12,4,,0.02,1,Rain,79
2013-2-22,44,42,39,38,37,36,96,90,73,30.25,30.19,30.12,10,5,2,13,10,18,0.31,8,Rain,43
2013-2-23,46,42,37,44,40,36,97,91,83,30.10,29.93,29.86,10,7,0,9,6,,0.31,7,Fog-Rain,38
2013-2-24,64,52,41,45,38,26,100,73,27,30.01,29.94,29.86,10,5,0,9,5,,0.00,2,Fog,288
2013-2-25,46,42,36,31,26,23,82,50,44,30.14,30.06,29.99,10,10,6,16,11,24,0.00,4,Rain,56
2013-2-26,43,38,33,41,35,30,96,90,79,30.01,29.76,29.62,10,6,2,30,14,39,1.06,7,Rain,51
2013-2-27,57,47,37,35,32,29,79,57,40,29.83,29.77,29.69,10,10,10,17,12,25,0.00,1,,238
2013-2-28,50,43,36,31,24,22,59,48,33,29.92,29.83,29.75,10,10,10,15,11,25,0.00,2,,269